createdAt,value
2022-11-01T00:02:12.128Z,100482.78
2022-11-01T00:04:39.368Z,100476.81
2022-11-01T00:07:06.819Z,100465.03
2022-11-01T00:09:33.790Z,100473.38
2022-11-01T00:12:00.783Z,100488.53
2022-11-01T00:14:27.967Z,100477.09
2022-11-01T00:16:55.276Z,100484.31
2022-11-01T00:19:22.251Z,100493.53
2022-11-01T00:21:49.138Z,100492.94
2022-11-01T00:24:16.067Z,100486.88
2022-11-01T00:26:43.109Z,100496.81
2022-11-01T00:29:11.648Z,100491.69
2022-11-01T00:31:38.546Z,100501.47
2022-11-01T00:34:06.809Z,100485.03
2022-11-01T00:36:35.248Z,100502.78
2022-11-01T00:39:03.722Z,100496.88
2022-11-01T00:41:30.704Z,100503.75
2022-11-01T00:43:57.837Z,100505.34
2022-11-01T00:46:24.697Z,100514.28
2022-11-01T00:48:51.673Z,100523.22
2022-11-01T00:51:18.548Z,100522.66
2022-11-01T00:53:45.435Z,100509.69
2022-11-01T00:56:12.348Z,100527.97
2022-11-01T00:58:39.264Z,100537.84
2022-11-01T01:01:06.349Z,100530.25
2022-11-01T01:03:33.311Z,100543.38
2022-11-01T01:06:00.296Z,100533.22
2022-11-01T01:08:27.877Z,100542.13
2022-11-01T01:10:55.099Z,100566.72
2022-11-01T01:13:23.381Z,100555.97
2022-11-01T01:15:50.279Z,100563.56
2022-11-01T01:18:17.752Z,100553.19
2022-11-01T01:20:44.704Z,100575.06
2022-11-01T01:23:11.612Z,100575.91
2022-11-01T01:25:42.643Z,100571.28
2022-11-01T01:28:10.238Z,100582.28
2022-11-01T01:30:41.339Z,100588.00
2022-11-01T01:33:09.477Z,100592.75
2022-11-01T01:35:38.654Z,100588.63
2022-11-01T01:38:06.804Z,100590.91
2022-11-01T01:40:34.820Z,100595.75
2022-11-01T01:43:01.758Z,100601.81
2022-11-01T01:45:36.960Z,100606.44
2022-11-01T01:48:26.530Z,100610.91
2022-11-01T01:51:03.362Z,100617.59
2022-11-01T01:53:35.775Z,100616.59
2022-11-01T01:56:15.631Z,100633.44
2022-11-01T01:58:58.462Z,100622.59
2022-11-01T02:01:26.654Z,100640.75
2022-11-01T02:03:53.805Z,100632.41
2022-11-01T02:08:58.632Z,100629.34
2022-11-01T02:11:25.520Z,100634.63
2022-11-01T02:13:52.663Z,100650.81
2022-11-01T02:17:14.785Z,100639.88
2022-11-01T02:20:18.387Z,100647.16
2022-11-01T02:23:20.436Z,100651.63
2022-11-01T02:26:09.440Z,100649.50
2022-11-01T02:28:51.354Z,100644.09
2022-11-01T02:32:14.522Z,100650.69
2022-11-01T02:35:26.230Z,100653.44
2022-11-01T02:38:35.021Z,100656.31
2022-11-01T02:41:20.822Z,100670.72
2022-11-01T02:43:59.541Z,100675.94
2022-11-01T02:46:46.173Z,100686.25
2022-11-01T02:49:15.960Z,100692.88
2022-11-01T02:51:44.838Z,100695.06
2022-11-01T02:54:23.752Z,100696.25
2022-11-01T02:56:51.870Z,100704.34
2022-11-01T02:59:25.144Z,100703.91
2022-11-01T03:02:04.856Z,100699.97
2022-11-01T03:04:32.145Z,100702.72
2022-11-01T03:07:05.615Z,100714.53
2022-11-01T03:09:34.011Z,100714.69
2022-11-01T03:12:25.907Z,100716.97
2022-11-01T03:15:07.390Z,100719.22
2022-11-01T03:17:51.364Z,100721.47
2022-11-01T03:20:47.327Z,100726.50
2022-11-01T03:23:30.375Z,100730.75
2022-11-01T03:26:00.915Z,100734.28
2022-11-01T03:28:37.466Z,100754.06
2022-11-01T03:31:26.297Z,100764.63
2022-11-01T03:33:58.105Z,100763.66
2022-11-01T03:36:31.150Z,100791.69
2022-11-01T03:39:15.584Z,100790.91
2022-11-01T03:41:49.032Z,100807.31
2022-11-01T03:44:16.633Z,100807.25
2022-11-01T03:46:44.212Z,100804.59
2022-11-01T03:49:16.614Z,100818.75
2022-11-01T03:51:43.518Z,100822.06
2022-11-01T03:54:11.161Z,100826.38
2022-11-01T03:56:41.892Z,100839.59
2022-11-01T03:59:10.350Z,100848.06
2022-11-01T04:02:04.341Z,100844.75
2022-11-01T04:04:31.452Z,100847.94
2022-11-01T04:06:58.333Z,100849.09
2022-11-01T04:09:25.297Z,100863.00
2022-11-01T04:11:52.671Z,100858.88
2022-11-01T04:14:37.727Z,100848.84
2022-11-01T04:17:43.077Z,100859.50
2022-11-01T04:20:28.714Z,100861.16
2022-11-01T04:22:55.632Z,100871.22
2022-11-01T04:25:22.604Z,100873.19
2022-11-01T04:27:49.533Z,100878.66
2022-11-01T04:30:16.496Z,100865.94
2022-11-01T04:32:46.477Z,100890.19
2022-11-01T04:35:13.934Z,100886.97
2022-11-01T04:37:40.875Z,100894.69
2022-11-01T04:40:08.535Z,100895.06
2022-11-01T04:42:38.999Z,100902.94
2022-11-01T04:45:08.383Z,100915.66
2022-11-01T04:47:35.755Z,100915.41
2022-11-01T04:50:02.711Z,100920.16
2022-11-01T04:52:29.617Z,100924.78
2022-11-01T04:54:56.494Z,100925.25
2022-11-01T04:57:23.412Z,100926.88
2022-11-01T04:59:55.895Z,100927.09
2022-11-01T05:02:24.155Z,100933.16
2022-11-01T05:04:51.056Z,100926.28
2022-11-01T05:07:17.984Z,100936.06
2022-11-01T05:09:44.922Z,100940.88
2022-11-01T05:12:11.796Z,100950.53
2022-11-01T05:14:38.846Z,100938.78
2022-11-01T05:17:05.734Z,100952.34
2022-11-01T05:19:32.664Z,100950.91
2022-11-01T05:21:59.851Z,100960.25
2022-11-01T05:24:26.804Z,100947.56
2022-11-01T05:26:53.734Z,100951.59
2022-11-01T05:29:32.962Z,100960.91
2022-11-01T05:32:00.679Z,100971.19
2022-11-01T05:34:27.703Z,100985.38
2022-11-01T05:36:54.844Z,100962.31
2022-11-01T05:39:21.770Z,100977.28
2022-11-01T05:41:48.666Z,100985.38
2022-11-01T05:44:15.557Z,100980.75
2022-11-01T05:46:42.432Z,100977.28
2022-11-01T05:49:09.320Z,100978.50
2022-11-01T05:51:36.238Z,100982.44
2022-11-01T05:54:03.111Z,100989.72
2022-11-01T05:56:29.998Z,100994.25
2022-11-01T05:58:56.904Z,100984.19
2022-11-01T06:01:23.865Z,100990.69
2022-11-01T06:03:51.222Z,100992.72
2022-11-01T06:06:18.413Z,101008.69
2022-11-01T06:08:45.297Z,101015.22
2022-11-01T06:11:12.482Z,101023.72
2022-11-01T06:13:39.425Z,101023.72
2022-11-01T06:16:07.176Z,101029.66
2022-11-01T06:18:34.091Z,101033.00
2022-11-01T06:21:00.978Z,101037.41
2022-11-01T06:23:27.885Z,101024.25
2022-11-01T06:26:05.415Z,101035.56
2022-11-01T06:28:33.386Z,101038.66
2022-11-01T06:31:02.433Z,101039.84
2022-11-01T06:33:31.234Z,101047.13
2022-11-01T06:35:58.330Z,101061.00
2022-11-01T06:38:25.243Z,101053.47
2022-11-01T06:40:52.197Z,101061.19
2022-11-01T06:43:19.096Z,101067.78
2022-11-01T06:45:46.074Z,101072.50
2022-11-01T06:48:12.949Z,101074.00
2022-11-01T06:50:40.212Z,101079.94
2022-11-01T06:53:07.164Z,101080.72
2022-11-01T06:55:34.089Z,101080.44
2022-11-01T06:58:03.917Z,101087.53
2022-11-01T07:00:31.949Z,101102.66
2022-11-01T07:03:07.530Z,101103.00
2022-11-01T07:05:37.750Z,101102.72
2022-11-01T07:08:08.155Z,101108.66
2022-11-01T07:10:37.636Z,101115.16
2022-11-01T07:13:06.937Z,101123.28
2022-11-01T07:15:34.723Z,101129.53
2022-11-01T07:18:05.323Z,101125.50
2022-11-01T07:20:42.224Z,101133.88
2022-11-01T07:23:16.096Z,101143.47
2022-11-01T07:25:43.442Z,101148.75
2022-11-01T07:28:10.779Z,101169.47
2022-11-01T07:30:37.835Z,101165.28
2022-11-01T07:33:05.814Z,101176.69
2022-11-01T07:35:34.351Z,101159.81
2022-11-01T07:38:04.012Z,101182.38
2022-11-01T07:40:35.596Z,101181.06
2022-11-01T07:43:02.898Z,101181.00
2022-11-01T07:45:33.647Z,101179.97
2022-11-01T07:48:06.924Z,101182.16
2022-11-01T07:50:34.666Z,101170.56
2022-11-01T07:53:17.223Z,101187.03
2022-11-01T07:55:45.226Z,101185.03
2022-11-01T07:58:13.734Z,101176.25
2022-11-01T08:00:43.921Z,101180.94
2022-11-01T08:03:14.849Z,101190.91
2022-11-01T08:05:43.159Z,101183.41
2022-11-01T08:08:10.848Z,101205.38
2022-11-01T08:10:38.461Z,101211.03
2022-11-01T08:13:09.302Z,101201.69
2022-11-01T08:15:36.277Z,101217.06
2022-11-01T08:18:03.596Z,101212.69
2022-11-01T08:20:30.982Z,101218.22
2022-11-01T08:22:58.229Z,101217.59
2022-11-01T08:25:25.270Z,101213.31
2022-11-01T08:27:52.670Z,101230.56
2022-11-01T08:30:20.881Z,101215.19
2022-11-01T08:32:47.778Z,101218.97
2022-11-01T08:35:14.882Z,101238.03
2022-11-01T08:37:52.825Z,101232.16
2022-11-01T08:40:24.100Z,101238.72
2022-11-01T08:42:51.208Z,101244.13
2022-11-01T08:45:18.606Z,101234.50
2022-11-01T08:47:46.035Z,101236.16
2022-11-01T08:50:15.736Z,101248.69
2022-11-01T08:52:43.372Z,101247.81
2022-11-01T08:55:13.970Z,101244.19
2022-11-01T08:57:40.874Z,101252.97
2022-11-01T09:00:10.244Z,101251.13
2022-11-01T09:02:37.564Z,101247.44
2022-11-01T09:05:06.671Z,101243.13
2022-11-01T09:07:37.738Z,101259.09
2022-11-01T09:10:06.337Z,101256.59
2022-11-01T09:12:33.448Z,101259.47
2022-11-01T09:15:00.633Z,101263.94
2022-11-01T09:17:27.537Z,101270.97
2022-11-01T09:19:54.469Z,101259.94
2022-11-01T09:22:21.685Z,101264.59
2022-11-01T09:24:48.608Z,101265.66
2022-11-01T09:27:16.283Z,101263.84
2022-11-01T09:29:45.399Z,101262.19
2022-11-01T09:32:15.369Z,101270.19
2022-11-01T09:34:42.330Z,101275.88
2022-11-01T09:37:09.486Z,101272.81
2022-11-01T09:39:36.396Z,101255.03
2022-11-01T09:42:11.024Z,101270.97
2022-11-01T09:44:44.016Z,101271.19
2022-11-01T09:47:19.075Z,101281.69
2022-11-01T09:49:52.506Z,101272.47
2022-11-01T09:52:26.174Z,101287.31
2022-11-01T09:54:53.447Z,101279.75
2022-11-01T09:57:29.183Z,101288.38
2022-11-01T10:00:13.594Z,101299.69
2022-11-01T10:03:23.326Z,101285.16
2022-11-01T10:06:22.573Z,101292.47
2022-11-01T10:09:05.904Z,101296.78
2022-11-01T10:11:54.154Z,101295.34
2022-11-01T10:14:48.405Z,101301.97
2022-11-01T10:18:00.898Z,101302.53
2022-11-01T10:20:37.136Z,101309.72
2022-11-01T10:23:06.063Z,101307.25
2022-11-01T10:25:36.666Z,101296.63
2022-11-01T10:28:21.866Z,101303.50
2022-11-01T10:30:57.816Z,101300.59
2022-11-01T10:34:28.807Z,101307.88
2022-11-01T10:37:31.903Z,101319.34
2022-11-01T10:40:11.669Z,101302.53
2022-11-01T10:42:38.930Z,101309.44
2022-11-01T10:45:11.488Z,101313.75
2022-11-01T10:47:39.077Z,101313.34
2022-11-01T10:50:18.847Z,101314.81
2022-11-01T10:52:54.595Z,101308.53
2022-11-01T10:55:32.918Z,101314.00
2022-11-01T10:58:24.684Z,101308.00
2022-11-01T11:00:53.025Z,101296.16
2022-11-01T11:03:29.397Z,101297.78
2022-11-01T11:06:00.471Z,101289.34
2022-11-01T11:08:27.607Z,101292.03
2022-11-01T11:10:58.580Z,101286.75
2022-11-01T11:13:26.808Z,101284.22
2022-11-01T11:16:01.532Z,101286.03
2022-11-01T11:18:39.293Z,101275.09
2022-11-01T11:21:09.052Z,101277.41
2022-11-01T11:23:46.072Z,101279.28
2022-11-01T11:26:17.634Z,101278.66
2022-11-01T11:28:53.255Z,101285.81
2022-11-01T11:31:34.190Z,101266.59
2022-11-01T11:34:26.550Z,101258.09
2022-11-01T11:36:55.095Z,101269.41
2022-11-01T11:39:31.140Z,101268.75
2022-11-01T11:42:16.780Z,101254.06
2022-11-01T11:44:53.863Z,101268.81
2022-11-01T11:47:26.805Z,101257.50
2022-11-01T11:49:56.561Z,101262.47
2022-11-01T11:52:38.560Z,101256.91
2022-11-01T11:55:35.948Z,101257.97
2022-11-01T11:58:05.734Z,101259.50
2022-11-01T12:00:37.828Z,101262.06
2022-11-01T12:03:07.058Z,101253.16
2022-11-01T12:05:34.576Z,101257.53
2022-11-01T12:08:01.707Z,101261.31
2022-11-01T12:10:46.325Z,101245.19
2022-11-01T12:13:37.089Z,101255.41
2022-11-01T12:16:24.774Z,101251.28
2022-11-01T12:18:58.570Z,101253.72
2022-11-01T12:21:25.463Z,101242.34
2022-11-01T12:24:06.724Z,101243.47
2022-11-01T12:26:36.988Z,101249.09
2022-11-01T12:29:33.772Z,101244.97
2022-11-01T12:32:10.286Z,101256.50
2022-11-01T12:34:42.593Z,101242.63
2022-11-01T12:37:52.194Z,101245.22
2022-11-01T12:40:26.122Z,101240.69
2022-11-01T12:43:18.231Z,101247.78
2022-11-01T12:46:01.138Z,101238.88
2022-11-01T12:48:36.858Z,101237.78
2022-11-01T12:51:23.335Z,101233.31
2022-11-01T12:54:18.383Z,101232.38
2022-11-01T12:56:45.374Z,101230.41
2022-11-01T12:59:19.568Z,101235.69
2022-11-01T13:02:02.045Z,101244.09
2022-11-01T13:04:37.258Z,101242.94
2022-11-01T13:07:43.971Z,101232.97
2022-11-01T13:10:33.447Z,101229.59
2022-11-01T13:13:27.847Z,101222.38
2022-11-01T13:15:57.743Z,101230.00
2022-11-01T13:18:44.609Z,101235.66
2022-11-01T13:21:17.815Z,101228.44
2022-11-01T13:24:05.980Z,101240.31
2022-11-01T13:26:54.810Z,101239.06
2022-11-01T13:29:45.394Z,101237.56
2022-11-01T13:32:30.515Z,101230.44
2022-11-01T13:36:16.939Z,101242.50
2022-11-01T13:39:19.862Z,101233.72
2022-11-01T13:42:08.781Z,101233.34
2022-11-01T13:44:45.144Z,101235.69
2022-11-01T13:47:33.848Z,101237.38
2022-11-01T13:50:58.870Z,101231.03
2022-11-01T13:53:25.656Z,101252.56
2022-11-01T13:56:01.405Z,101238.41
2022-11-01T13:58:28.820Z,101255.69
2022-11-01T14:00:56.362Z,101242.47
2022-11-01T14:03:35.010Z,101251.34
2022-11-01T14:09:29.056Z,101259.44
2022-11-01T14:12:17.809Z,101249.25
2022-11-01T14:14:47.419Z,101253.75
2022-11-01T14:17:20.294Z,101251.75
2022-11-01T14:20:14.342Z,101243.97
2022-11-01T14:22:44.876Z,101246.63
2022-11-01T14:25:12.364Z,101245.13
2022-11-01T14:27:48.813Z,101247.06
2022-11-01T14:30:29.737Z,101231.03
2022-11-01T14:33:00.189Z,101230.66
2022-11-01T14:35:35.274Z,101225.84
2022-11-01T14:38:13.211Z,101214.28
2022-11-01T14:40:44.525Z,101218.84
2022-11-01T14:43:55.105Z,101228.69
2022-11-01T14:46:28.831Z,101218.72
2022-11-01T14:49:35.545Z,101212.00
2022-11-01T14:52:25.486Z,101218.81
2022-11-01T14:55:17.361Z,101221.38
2022-11-01T14:57:45.946Z,101211.06
2022-11-01T15:00:26.828Z,101216.84
2022-11-01T15:02:54.296Z,101219.03
2022-11-01T15:05:21.486Z,101224.56
2022-11-01T15:07:55.577Z,101220.59
2022-11-01T15:10:23.697Z,101224.50
2022-11-01T15:12:54.556Z,101215.03
2022-11-01T15:15:25.974Z,101220.53
2022-11-01T15:18:00.360Z,101225.53
2022-11-01T15:20:37.034Z,101217.19
2022-11-01T15:23:08.788Z,101214.09
2022-11-01T15:25:36.565Z,101203.03
2022-11-01T15:28:03.723Z,101213.94
2022-11-01T15:30:33.948Z,101203.91
2022-11-01T15:33:18.656Z,101188.63
2022-11-01T15:35:59.324Z,101195.03
2022-11-01T15:39:15.029Z,101196.91
2022-11-01T15:41:46.737Z,101205.34
2022-11-01T15:44:26.531Z,101202.41
2022-11-01T15:47:06.378Z,101205.00
2022-11-01T15:49:47.705Z,101204.13
2022-11-01T15:52:28.117Z,101192.41
2022-11-01T15:55:30.253Z,101187.78
2022-11-01T15:58:20.137Z,101193.34
2022-11-01T16:00:55.350Z,101213.25
2022-11-01T16:03:59.893Z,101199.53
2022-11-01T16:06:29.904Z,101206.13
2022-11-01T16:09:02.548Z,101214.81
2022-11-01T16:11:32.633Z,101225.47
2022-11-01T16:14:21.003Z,101216.75
2022-11-01T16:17:23.044Z,101216.63
2022-11-01T16:19:51.656Z,101208.16
2022-11-01T16:22:37.206Z,101215.44
2022-11-01T16:25:10.015Z,101206.81
2022-11-01T16:27:54.751Z,101221.75
2022-11-01T16:30:46.568Z,101216.50
2022-11-01T16:33:29.825Z,101222.56
2022-11-01T16:35:57.697Z,101227.00
2022-11-01T16:38:38.218Z,101210.81
2022-11-01T16:41:39.691Z,101205.38
2022-11-01T16:44:18.709Z,101214.94
2022-11-01T16:46:45.887Z,101215.31
2022-11-01T16:49:21.580Z,101207.94
2022-11-01T16:51:48.973Z,101199.88
2022-11-01T16:54:16.494Z,101205.47
2022-11-01T16:56:50.567Z,101211.81
2022-11-01T16:59:38.225Z,101216.03
2022-11-01T17:02:23.169Z,101214.53
2022-11-01T17:04:59.913Z,101226.16
2022-11-01T17:07:27.705Z,101222.22
2022-11-01T17:09:54.692Z,101214.22
2022-11-01T17:12:22.009Z,101235.16
2022-11-01T17:14:48.929Z,101227.63
2022-11-01T17:17:19.718Z,101231.91
2022-11-01T17:19:51.312Z,101224.31
2022-11-01T17:22:22.448Z,101227.38
2022-11-01T17:24:49.495Z,101221.69
2022-11-01T17:27:16.886Z,101213.88
2022-11-01T17:29:43.798Z,101217.78
2022-11-01T17:32:11.536Z,101201.78
2022-11-01T17:34:39.233Z,101201.16
2022-11-01T17:37:06.494Z,101211.97
2022-11-01T17:39:33.497Z,101204.69
2022-11-01T17:42:00.592Z,101208.56
2022-11-01T17:44:27.723Z,101212.47
2022-11-01T17:46:54.681Z,101210.00
2022-11-01T17:49:24.322Z,101208.16
2022-11-01T17:51:54.690Z,101194.03
2022-11-01T17:54:23.257Z,101201.41
2022-11-01T17:56:51.220Z,101199.72
2022-11-01T17:59:18.443Z,101187.06
2022-11-01T18:01:45.620Z,101205.06
2022-11-01T18:04:12.733Z,101211.63
2022-11-01T18:06:40.780Z,101212.72
2022-11-01T18:09:23.567Z,101229.25
2022-11-01T18:12:10.019Z,101231.47
2022-11-01T18:15:03.302Z,101217.53
2022-11-01T18:18:06.766Z,101215.94
2022-11-01T18:20:53.056Z,101242.13
2022-11-01T18:23:20.665Z,101268.97
2022-11-01T18:25:49.780Z,101256.00
2022-11-01T18:28:30.363Z,101249.19
2022-11-01T18:31:10.611Z,101258.97
2022-11-01T18:33:41.583Z,101253.22
2022-11-01T18:36:47.938Z,101259.22
2022-11-01T18:39:30.873Z,101265.75
2022-11-01T18:42:00.718Z,101256.66
2022-11-01T18:44:28.020Z,101266.38
2022-11-01T18:47:18.957Z,101281.25
2022-11-01T18:49:50.609Z,101276.47
2022-11-01T18:52:19.224Z,101273.50
2022-11-01T18:54:56.707Z,101273.22
2022-11-01T18:57:26.589Z,101283.50
2022-11-01T18:59:54.675Z,101281.81
2022-11-01T19:02:27.171Z,101276.75
2022-11-01T19:05:18.611Z,101277.16
2022-11-01T19:08:16.303Z,101302.75
2022-11-01T19:10:42.351Z,101285.38
2022-11-01T19:13:34.080Z,101295.06
2022-11-01T19:16:02.740Z,101271.19
2022-11-01T19:18:30.890Z,101278.09
2022-11-01T19:21:00.120Z,101284.69
2022-11-01T19:23:39.228Z,101271.59
2022-11-01T19:26:37.140Z,101264.88
2022-11-01T19:29:19.017Z,101270.97
2022-11-01T19:31:54.389Z,101273.22
2022-11-01T19:34:25.144Z,101261.00
2022-11-01T19:36:55.447Z,101260.38
2022-11-01T19:39:33.208Z,101252.97
2022-11-01T19:42:21.481Z,101266.41
2022-11-01T19:44:48.665Z,101262.81
2022-11-01T19:47:49.517Z,101251.19
2022-11-01T19:50:43.743Z,101243.06
2022-11-01T19:53:28.307Z,101243.69
2022-11-01T19:56:05.705Z,101254.19
2022-11-01T19:58:46.688Z,101250.47
2022-11-01T20:01:25.582Z,101216.81
2022-11-01T20:03:58.878Z,101222.28
2022-11-01T20:06:35.578Z,101253.97
2022-11-01T20:09:13.933Z,101217.72
2022-11-01T20:11:41.389Z,101186.16
2022-11-01T20:14:08.309Z,101214.41
2022-11-01T20:16:35.375Z,101206.25
2022-11-01T20:19:02.306Z,101201.81
2022-11-01T20:21:29.205Z,101214.94
2022-11-01T20:23:56.283Z,101222.69
2022-11-01T20:26:23.233Z,101216.94
2022-11-01T20:28:50.297Z,101238.28
2022-11-01T20:31:17.293Z,101275.38
2022-11-01T20:33:46.581Z,101253.13
2022-11-01T20:36:14.012Z,101244.47
2022-11-01T20:38:41.338Z,101218.78
2022-11-01T20:41:08.623Z,101205.53
2022-11-01T20:43:35.716Z,101208.53
2022-11-01T20:46:02.628Z,101205.03
2022-11-01T20:48:29.969Z,101213.19
2022-11-01T20:50:58.977Z,101211.19
2022-11-01T20:53:29.708Z,101208.66
2022-11-01T20:55:58.082Z,101198.78
2022-11-01T20:58:26.392Z,101201.81
2022-11-01T21:00:53.979Z,101200.50
2022-11-01T21:03:22.546Z,101199.31
2022-11-01T21:05:51.070Z,101187.25
2022-11-01T21:08:25.855Z,101202.88
2022-11-01T21:11:02.349Z,101203.06
2022-11-01T21:13:37.076Z,101202.28
2022-11-01T21:16:14.371Z,101196.00
2022-11-01T21:18:45.775Z,101186.28
2022-11-01T21:21:15.957Z,101192.38
2022-11-01T21:23:46.260Z,101185.00
2022-11-01T21:26:20.788Z,101203.03
2022-11-01T21:28:54.621Z,101199.88
2022-11-01T21:31:34.420Z,101195.44
2022-11-01T21:34:24.729Z,101190.56
2022-11-01T21:36:52.195Z,101193.94
2022-11-01T21:39:27.060Z,101191.59
2022-11-01T21:42:33.208Z,101197.72
2022-11-01T21:45:00.639Z,101183.03
2022-11-01T21:47:32.721Z,101191.28
2022-11-01T21:49:59.651Z,101191.28
2022-11-01T21:52:26.638Z,101186.94
2022-11-01T21:54:53.551Z,101194.06
2022-11-01T21:57:20.513Z,101186.00
2022-11-01T21:59:47.561Z,101186.16
2022-11-01T22:02:15.370Z,101186.00
2022-11-01T22:04:43.010Z,101176.59
2022-11-01T22:07:10.645Z,101182.84
2022-11-01T22:09:39.027Z,101191.09
2022-11-01T22:12:07.076Z,101177.81
2022-11-01T22:14:34.623Z,101172.50
2022-11-01T22:17:01.575Z,101175.53
2022-11-01T22:19:28.763Z,101171.28
2022-11-01T22:21:55.768Z,101167.00
2022-11-01T22:24:23.607Z,101171.25
2022-11-01T22:26:50.587Z,101170.91
2022-11-01T22:29:17.637Z,101171.75
2022-11-01T22:31:44.564Z,101183.53
2022-11-01T22:34:11.507Z,101177.28
2022-11-01T22:36:41.581Z,101178.91
2022-11-01T22:39:25.080Z,101189.94
2022-11-01T22:41:52.542Z,101182.59
2022-11-01T22:44:26.959Z,101184.81
2022-11-01T22:47:03.310Z,101196.47
2022-11-01T22:49:42.089Z,101195.69
2022-11-01T22:52:31.220Z,101201.81
2022-11-01T22:55:23.927Z,101201.81
2022-11-01T22:57:59.195Z,101206.72
2022-11-01T23:00:31.864Z,101209.59
2022-11-01T23:03:25.293Z,101209.25
2022-11-01T23:05:59.080Z,101215.03
2022-11-01T23:08:44.092Z,101226.91
2022-11-01T23:11:42.732Z,101224.41
2022-11-01T23:14:37.907Z,101219.00
2022-11-01T23:17:24.088Z,101227.56
2022-11-01T23:20:01.893Z,101234.03
2022-11-01T23:22:35.495Z,101230.34
2022-11-01T23:25:04.921Z,101231.13
2022-11-01T23:27:32.107Z,101237.63
2022-11-01T23:30:02.113Z,101226.59
2022-11-01T23:32:30.755Z,101229.69
2022-11-01T23:35:18.190Z,101223.38
2022-11-01T23:37:45.912Z,101236.53
2022-11-01T23:40:20.169Z,101235.00
2022-11-01T23:42:48.902Z,101245.53
2022-11-01T23:45:30.242Z,101244.38
2022-11-01T23:47:58.545Z,101235.03
2022-11-01T23:50:33.695Z,101247.84
2022-11-01T23:53:05.512Z,101247.38
2022-11-01T23:55:37.953Z,101245.66
2022-11-01T23:58:12.799Z,101250.41
